Time;durP1;ratioP1;P1;durP2;ratioP2;P2;SDS_P1;SDS_P2;PMS_P1;PMS_P2;Temp;Humidity;BMP_temperature;BMP_pressure;BME280_temperature;BME280_humidity;BME280_pressure;Samples;Min_cycle;Max_cycle;Signal;HPM_P1;HPM_P2
2022/04/27 00:05:04;;;;;;;0.20;0.10;;;13.60;99.90;;;;;;25531540;23;20187;-72
2022/04/27 00:15:08;;;;;;;0.20;0.10;;;13.80;99.90;;;;;;25535963;23;20190;-71
2022/04/27 00:25:14;;;;;;;0.20;0.10;;;14.10;99.90;;;;;;25531364;23;20167;-70
2022/04/27 00:35:17;;;;;;;0.20;0.00;;;13.90;99.90;;;;;;25531903;23;20197;-72
2022/04/27 00:45:22;;;;;;;0.20;0.10;;;13.60;99.90;;;;;;25532070;23;20191;-72
2022/04/27 00:55:27;;;;;;;0.20;0.10;;;13.60;99.90;;;;;;25530345;23;20269;-71
2022/04/27 01:05:32;;;;;;;0.20;0.10;;;13.60;99.90;;;;;;25530193;23;20297;-71
2022/04/27 01:15:36;;;;;;;0.20;0.10;;;13.30;99.90;;;;;;25503331;23;20186;-72
2022/04/27 01:25:55;;;;;;;0.20;0.10;;;13.50;99.90;;;;;;25529018;23;20175;-72
2022/04/27 01:35:59;;;;;;;0.20;0.00;;;13.60;99.90;;;;;;25503731;23;20406;-71
2022/04/27 01:46:06;;;;;;;0.20;0.10;;;13.30;99.90;;;;;;25528122;23;20659;-70
2022/04/27 01:56:09;;;;;;;0.20;0.10;;;13.00;99.90;;;;;;25528646;23;20470;-70
2022/04/27 02:06:16;;;;;;;0.20;0.10;;;13.10;99.90;;;;;;25530043;23;20186;-70
2022/04/27 02:16:20;;;;;;;0.20;0.10;;;13.20;99.90;;;;;;25537803;23;20190;-70
2022/04/27 02:26:25;;;;;;;0.20;0.10;;;13.20;99.90;;;;;;25535020;23;20166;-71
2022/04/27 02:36:29;;;;;;;0.20;0.10;;;13.30;99.90;;;;;;25535657;23;20197;-70
2022/04/27 02:46:34;;;;;;;0.20;0.10;;;13.60;99.90;;;;;;25508045;23;20202;-70
2022/04/27 02:56:38;;;;;;;0.20;0.10;;;13.40;99.90;;;;;;25511388;23;20206;-71
2022/04/27 03:06:43;;;;;;;0.20;0.10;;;13.50;99.90;;;;;;25534349;23;20174;-72
2022/04/27 03:16:47;;;;;;;0.20;0.10;;;13.50;99.90;;;;;;25508234;23;20202;-72
2022/04/27 03:26:53;;;;;;;0.20;0.00;;;13.70;99.90;;;;;;25534524;23;20166;-72
2022/04/27 03:36:56;;;;;;;0.20;0.10;;;13.40;99.90;;;;;;25531801;23;20202;-71
2022/04/27 03:47:01;;;;;;;0.20;0.10;;;12.90;99.90;;;;;;25533997;23;20217;-71
2022/04/27 03:57:05;;;;;;;0.20;0.10;;;12.90;99.90;;;;;;25533731;23;20217;-69
2022/04/27 04:07:12;;;;;;;0.20;0.10;;;12.90;99.90;;;;;;25531834;23;20281;-70
2022/04/27 04:17:16;;;;;;;0.20;0.10;;;12.90;99.90;;;;;;25504874;23;20190;-71
2022/04/27 04:37:43;;;;;;;0.20;0.10;;;13.00;99.90;;;;;;25529429;23;20198;-72
2022/04/27 04:47:48;;;;;;;0.20;0.00;;;13.10;99.90;;;;;;25530977;23;20195;-71
2022/04/27 04:57:57;;;;;;;0.20;0.10;;;13.10;99.90;;;;;;25527253;23;20200;-72
2022/04/27 05:08:04;;;;;;;0.20;0.10;;;13.10;99.90;;;;;;25502725;23;20474;-70
2022/04/27 05:18:07;;;;;;;0.20;0.10;;;13.20;99.90;;;;;;25527518;23;20186;-72
2022/04/27 05:28:13;;;;;;;0.20;0.10;;;13.70;99.90;;;;;;25528391;23;20174;-72
2022/04/27 05:38:17;;;;;;;0.20;0.00;;;14.10;99.90;;;;;;25497349;23;20191;-72
2022/04/27 05:48:22;;;;;;;0.20;0.10;;;14.10;99.90;;;;;;25527626;23;20194;-71
2022/04/27 05:58:26;;;;;;;0.20;0.10;;;14.40;99.90;;;;;;25519580;23;20205;-72
2022/04/27 06:08:31;;;;;;;0.20;0.00;;;15.10;99.90;;;;;;25490283;23;20171;-72
2022/04/27 06:18:35;;;;;;;0.20;0.10;;;15.40;99.90;;;;;;25514921;23;20198;-71
2022/04/27 06:28:41;;;;;;;0.20;0.00;;;15.80;99.90;;;;;;25523934;23;20175;-72
2022/04/27 06:38:46;;;;;;;0.20;0.10;;;16.00;99.90;;;;;;25520198;23;20221;-73
2022/04/27 06:48:56;;;;;;;0.20;0.03;;;16.40;99.90;;;;;;25522884;23;20195;-73
2022/04/27 06:59:00;;;;;;;0.20;0.10;;;16.70;99.90;;;;;;25505618;23;20206;-71
2022/04/27 07:09:06;;;;;;;0.20;0.00;;;16.60;99.90;;;;;;25498839;23;20186;-69
2022/04/27 07:19:09;;;;;;;0.20;0.03;;;16.80;99.90;;;;;;25528516;23;20219;-72
2022/04/27 07:29:14;;;;;;;0.20;0.00;;;17.40;99.90;;;;;;25502022;23;20198;-70
2022/04/27 07:39:24;;;;;;;0.20;0.00;;;17.50;99.90;;;;;;25530102;23;20168;-70
2022/04/27 07:49:29;;;;;;;0.20;0.10;;;17.60;99.90;;;;;;25527956;23;20199;-72
2022/04/27 07:59:34;;;;;;;0.20;0.03;;;17.50;99.90;;;;;;25524657;23;20202;-70
2022/04/27 08:09:39;;;;;;;0.20;0.10;;;17.40;99.90;;;;;;25528688;23;20249;-72
2022/04/27 08:19:43;;;;;;;0.20;0.10;;;17.80;99.90;;;;;;25528129;23;20201;-72
2022/04/27 08:29:49;;;;;;;0.20;0.10;;;17.70;99.90;;;;;;25505441;23;20194;-71
2022/04/27 08:39:54;;;;;;;0.20;0.10;;;18.30;99.90;;;;;;25500646;23;20175;-70
2022/04/27 08:49:59;;;;;;;0.20;0.03;;;18.80;99.90;;;;;;25501528;23;20199;-70
2022/04/27 09:00:04;;;;;;;0.20;0.10;;;18.80;99.90;;;;;;25472523;23;20199;-71
2022/04/27 09:10:11;;;;;;;0.20;0.03;;;19.00;99.90;;;;;;25521097;23;20194;-71
2022/04/27 09:30:38;;;;;;;0.20;0.10;;;19.00;99.90;;;;;;25462412;23;20198;-72
2022/04/27 09:40:47;;;;;;;0.20;0.10;;;19.60;99.90;;;;;;25511558;23;20205;-70
2022/04/27 09:50:55;;;;;;;0.20;0.10;;;20.00;99.90;;;;;;25512881;23;20201;-72
2022/04/27 10:01:04;;;;;;;0.30;0.30;;;19.90;99.90;;;;;;25513394;23;20194;-69
2022/04/27 10:11:12;;;;;;;0.20;0.00;;;20.30;99.90;;;;;;25511880;23;20193;-71
2022/04/27 10:21:39;;;;;;;0.20;0.13;;;20.80;99.90;;;;;;25516229;23;20217;-72
2022/04/27 10:32:02;;;;;;;0.20;0.00;;;21.30;99.90;;;;;;25522142;23;20532;-72
2022/04/27 10:42:30;;;;;;;0.23;0.23;;;20.90;99.90;;;;;;25517981;23;20198;-73
2022/04/27 10:52:43;;;;;;;0.20;0.00;;;21.60;99.90;;;;;;25520146;23;20442;-72
2022/04/27 11:02:47;;;;;;;0.20;0.00;;;21.70;99.90;;;;;;25519293;23;20197;-69
2022/04/27 11:12:54;;;;;;;0.20;0.00;;;21.90;99.90;;;;;;25521080;23;20187;-72
2022/04/27 11:22:59;;;;;;;0.20;0.00;;;21.60;99.90;;;;;;25493684;23;20182;-72
2022/04/27 11:33:05;;;;;;;0.20;0.00;;;21.30;99.90;;;;;;25516114;23;20199;-73
2022/04/27 11:43:08;;;;;;;0.20;0.10;;;22.00;99.90;;;;;;25489045;23;20195;-73
2022/04/27 11:53:14;;;;;;;0.20;0.00;;;23.50;99.90;;;;;;25516834;23;20195;-73
2022/04/27 12:03:18;;;;;;;0.20;0.08;;;23.60;99.90;;;;;;25516189;23;20265;-70
2022/04/27 12:13:24;;;;;;;0.20;0.00;;;23.30;99.90;;;;;;25515667;23;20191;-76
2022/04/27 12:23:39;;;;;;;0.20;0.00;;;23.70;99.90;;;;;;25512616;23;20587;-76
2022/04/27 12:33:46;;;;;;;0.20;0.00;;;23.80;99.90;;;;;;25476024;23;20190;-76
2022/04/27 12:43:50;;;;;;;0.20;0.00;;;21.80;99.90;;;;;;25511577;23;20210;-71
2022/04/27 12:54:15;;;;;;;0.20;0.00;;;21.20;99.90;;;;;;25514413;23;20202;-70
2022/04/27 13:04:19;;;;;;;0.20;0.00;;;21.80;99.90;;;;;;25515569;23;20409;-72
2022/04/27 13:14:25;;;;;;;0.20;0.10;;;22.80;99.90;;;;;;25513548;23;20190;-72
2022/04/27 13:24:30;;;;;;;0.20;0.00;;;22.90;99.90;;;;;;25516039;23;20175;-69
2022/04/27 13:34:55;;;;;;;0.20;0.00;;;21.60;99.90;;;;;;25485970;23;20289;-72
2022/04/27 13:44:59;;;;;;;0.20;0.00;;;23.80;99.90;;;;;;25531892;23;20202;-72
2022/04/27 13:55:06;;;;;;;0.20;0.00;;;22.80;99.90;;;;;;25503237;23;20202;-72
2022/04/27 14:05:11;;;;;;;0.20;0.00;;;21.20;99.90;;;;;;25499614;23;20191;-71
2022/04/27 15:53:00;;;;;;;0.20;0.10;;;20.50;99.90;;;;;;25406943;23;20183;-71
2022/04/27 16:03:04;;;;;;;0.20;0.10;;;20.30;99.90;;;;;;25402179;23;20767;-71
2022/04/27 16:13:09;;;;;;;0.20;0.17;;;19.80;99.90;;;;;;25403162;23;20210;-71
2022/04/27 16:23:13;;;;;;;0.20;0.00;;;19.80;99.90;;;;;;25403824;23;20247;-72
2022/04/27 16:33:18;;;;;;;0.20;0.00;;;19.70;99.90;;;;;;25400648;23;20191;-72
2022/04/27 16:43:22;;;;;;;0.20;0.10;;;19.40;99.90;;;;;;25407878;23;20238;-71
2022/04/27 16:53:27;;;;;;;0.20;0.10;;;19.30;99.90;;;;;;25522318;23;20183;-71
2022/04/27 17:03:40;;;;;;;0.20;0.13;;;19.00;99.90;;;;;;25520409;23;20246;-73
2022/04/27 17:13:45;;;;;;;0.20;0.10;;;19.10;99.90;;;;;;25525519;23;20272;-70
2022/04/27 17:23:53;;;;;;;0.20;0.10;;;19.00;99.90;;;;;;25530874;23;20162;-69
2022/04/27 17:34:04;;;;;;;0.20;0.00;;;18.50;99.90;;;;;;25531081;23;20183;-70
2022/04/27 17:44:08;;;;;;;0.20;0.10;;;18.60;99.90;;;;;;25505157;23;20205;-70
2022/04/27 17:54:13;;;;;;;0.20;0.10;;;18.50;99.90;;;;;;25506963;23;20194;-71
2022/04/27 18:04:17;;;;;;;0.20;0.00;;;18.60;99.90;;;;;;25529043;23;20202;-73
2022/04/27 18:14:23;;;;;;;0.20;0.00;;;18.50;99.90;;;;;;25514972;23;20190;-75
2022/04/27 18:24:27;;;;;;;0.20;0.03;;;18.20;99.90;;;;;;25537245;23;20174;-73
2022/04/27 18:34:32;;;;;;;0.20;0.10;;;18.10;99.90;;;;;;25535672;23;20190;-71
2022/04/27 18:55:00;;;;;;;0.20;0.00;;;17.70;99.90;;;;;;25521595;23;20195;-73
2022/04/27 19:05:05;;;;;;;0.20;0.10;;;17.60;99.90;;;;;;25520691;23;20186;-73
2022/04/27 19:15:11;;;;;;;0.20;0.10;;;17.40;99.90;;;;;;25543483;23;20243;-72
2022/04/27 19:25:15;;;;;;;0.20;0.10;;;17.30;99.90;;;;;;25541922;23;20179;-73
2022/04/27 19:35:22;;;;;;;0.20;0.10;;;17.10;99.90;;;;;;25544821;23;20202;-71
2022/04/27 19:45:26;;;;;;;0.20;0.10;;;16.90;99.90;;;;;;25543667;23;20199;-73
2022/04/27 19:55:32;;;;;;;0.20;0.03;;;16.70;99.90;;;;;;25537914;23;20214;-71
2022/04/27 20:05:36;;;;;;;0.20;0.10;;;16.40;99.90;;;;;;25543319;23;20201;-72
2022/04/27 20:15:41;;;;;;;0.20;0.00;;;16.50;99.90;;;;;;25542998;23;20191;-73
2022/04/27 20:25:45;;;;;;;0.20;0.10;;;16.50;99.90;;;;;;25545900;23;20174;-72
2022/04/27 20:35:51;;;;;;;0.20;0.10;;;16.30;99.90;;;;;;25544537;23;20195;-74
2022/04/27 20:45:55;;;;;;;0.20;0.00;;;16.20;99.90;;;;;;25544407;23;20190;-74
2022/04/27 20:56:01;;;;;;;0.20;0.10;;;16.20;99.90;;;;;;25541632;23;20217;-74
2022/04/27 21:06:05;;;;;;;0.20;0.10;;;16.00;99.90;;;;;;25540846;23;20175;-72
2022/04/27 21:16:10;;;;;;;0.20;0.00;;;16.00;99.90;;;;;;25517960;23;20191;-74
2022/04/27 21:26:14;;;;;;;0.20;0.10;;;16.00;99.90;;;;;;25544576;23;20166;-74
2022/04/27 21:36:19;;;;;;;0.20;0.10;;;16.00;99.90;;;;;;25542187;23;20200;-70
2022/04/27 21:46:23;;;;;;;0.20;0.10;;;15.70;99.90;;;;;;25517116;23;20277;-71
2022/04/27 21:56:29;;;;;;;0.20;0.10;;;15.60;99.90;;;;;;25541462;23;20198;-71
2022/04/27 22:06:34;;;;;;;0.20;0.10;;;15.50;99.90;;;;;;25515667;23;20170;-70
2022/04/27 22:16:41;;;;;;;0.20;0.10;;;15.60;99.90;;;;;;25514905;23;20206;-74
2022/04/27 22:26:45;;;;;;;0.20;0.00;;;15.50;99.90;;;;;;25550544;23;20181;-73
2022/04/27 22:36:50;;;;;;;0.20;0.10;;;15.30;99.90;;;;;;25550417;23;20201;-75
2022/04/27 22:46:54;;;;;;;0.20;0.07;;;15.20;99.90;;;;;;25525541;23;20197;-70
2022/04/27 22:56:59;;;;;;;0.20;0.10;;;15.00;99.90;;;;;;25550055;23;20254;-69
2022/04/27 23:07:03;;;;;;;0.20;0.10;;;15.00;99.90;;;;;;25547440;23;20163;-69
2022/04/27 23:17:09;;;;;;;0.20;0.10;;;15.20;99.90;;;;;;25546970;23;20191;-70
2022/04/27 23:27:13;;;;;;;0.20;0.10;;;15.20;99.90;;;;;;25545602;23;20162;-72
2022/04/27 23:37:18;;;;;;;0.20;0.10;;;15.20;99.90;;;;;;25548679;23;20618;-73
2022/04/27 23:47:22;;;;;;;0.20;0.00;;;15.10;99.90;;;;;;25546639;23;20194;-73
2022/04/27 23:57:28;;;;;;;0.20;0.10;;;15.00;99.90;;;;;;25549525;23;20205;-73
